createdAt,value
2022-09-23T00:00:22.914Z,2.95
2022-09-23T00:02:52.375Z,3.20
2022-09-23T00:05:19.760Z,3.00
2022-09-23T00:07:47.096Z,3.00
2022-09-23T00:10:14.645Z,2.58
2022-09-23T00:12:41.963Z,2.20
2022-09-23T00:15:11.276Z,2.50
2022-09-23T00:17:38.605Z,2.50
2022-09-23T00:20:06.229Z,2.40
2022-09-23T00:22:34.126Z,2.58
2022-09-23T00:25:01.431Z,2.75
2022-09-23T00:27:29.609Z,2.78
2022-09-23T00:29:56.865Z,2.17
2022-09-23T00:32:24.834Z,2.20
2022-09-23T00:34:52.788Z,2.10
2022-09-23T00:37:20.466Z,2.40
2022-09-23T00:39:47.855Z,2.35
2022-09-23T00:42:16.804Z,3.97
2022-09-23T00:44:44.119Z,4.82
2022-09-23T00:47:34.720Z,3.92
2022-09-23T00:50:15.977Z,3.22
2022-09-23T00:52:43.385Z,2.75
2022-09-23T00:55:31.924Z,2.40
2022-09-23T00:58:00.108Z,1.90
2022-09-23T01:00:27.587Z,2.65
2022-09-23T01:02:55.089Z,2.10
2022-09-23T01:05:22.504Z,2.15
2022-09-23T01:07:50.942Z,2.45
2022-09-23T01:10:18.696Z,2.40
2022-09-23T01:12:52.130Z,1.95
2022-09-23T01:15:29.393Z,2.25
2022-09-23T01:17:56.679Z,2.72
2022-09-23T01:20:29.944Z,2.40
2022-09-23T01:22:57.272Z,2.40
2022-09-23T01:25:37.076Z,2.60
2022-09-23T01:28:11.872Z,2.45
2022-09-23T01:30:51.734Z,2.75
2022-09-23T01:33:37.620Z,2.28
2022-09-23T01:36:23.844Z,2.30
2022-09-23T01:39:00.471Z,2.42
2022-09-23T01:41:31.600Z,2.50
2022-09-23T01:44:03.227Z,2.50
2022-09-23T01:46:36.754Z,2.45
2022-09-23T01:49:09.529Z,2.30
2022-09-23T01:51:39.369Z,2.50
2022-09-23T01:54:25.431Z,2.53
2022-09-23T01:56:58.881Z,2.97
2022-09-23T01:59:29.034Z,2.97
2022-09-23T02:02:00.399Z,2.10
2022-09-23T02:04:35.005Z,2.58
2022-09-23T02:07:04.680Z,2.63
2022-09-23T02:09:36.607Z,3.03
2022-09-23T02:12:05.868Z,2.80
2022-09-23T02:14:37.514Z,2.50
2022-09-23T02:17:08.988Z,2.78
2022-09-23T02:19:45.905Z,2.30
2022-09-23T02:22:16.160Z,2.70
2022-09-23T02:24:45.177Z,3.03
2022-09-23T02:27:26.864Z,2.70
2022-09-23T02:30:12.175Z,2.92
2022-09-23T02:32:43.032Z,2.70
2022-09-23T02:35:19.555Z,2.70
2022-09-23T02:37:57.745Z,2.50
2022-09-23T02:40:31.152Z,3.20
2022-09-23T02:43:06.003Z,2.90
2022-09-23T02:45:33.849Z,3.28
2022-09-23T02:48:17.249Z,2.83
2022-09-23T02:50:44.565Z,2.72
2022-09-23T02:53:11.980Z,2.97
2022-09-23T02:55:40.165Z,2.95
2022-09-23T02:58:07.835Z,2.30
2022-09-23T03:00:47.402Z,3.05
2022-09-23T03:03:23.172Z,3.22
2022-09-23T03:05:54.189Z,2.40
2022-09-23T03:08:53.930Z,2.70
2022-09-23T03:11:21.778Z,2.95
2022-09-23T03:13:49.128Z,3.00
2022-09-23T03:16:16.560Z,2.85
2022-09-23T03:18:47.539Z,2.88
2022-09-23T03:21:14.793Z,2.92
2022-09-23T03:23:43.036Z,2.90
2022-09-23T03:26:15.620Z,2.25
2022-09-23T03:28:43.984Z,2.67
2022-09-23T03:31:13.352Z,2.90
2022-09-23T03:33:43.103Z,2.75
2022-09-23T03:36:30.063Z,3.38
2022-09-23T03:39:00.164Z,3.10
2022-09-23T03:41:33.744Z,2.90
2022-09-23T03:44:01.224Z,3.75
2022-09-23T03:46:30.129Z,3.05
2022-09-23T03:49:00.607Z,3.17
2022-09-23T03:51:27.904Z,2.88
2022-09-23T03:53:55.229Z,2.55
2022-09-23T03:56:22.489Z,2.97
2022-09-23T03:58:50.290Z,2.92
2022-09-23T04:01:17.659Z,3.15
2022-09-23T04:03:45.018Z,2.97
2022-09-23T04:06:12.468Z,3.22
2022-09-23T04:08:39.803Z,3.45
2022-09-23T04:11:07.157Z,3.08
2022-09-23T04:13:34.616Z,5.13
2022-09-23T04:16:02.095Z,3.47
2022-09-23T04:18:29.443Z,4.00
2022-09-23T04:21:00.365Z,3.38
2022-09-23T04:23:28.098Z,3.70
2022-09-23T04:25:55.692Z,3.05
2022-09-23T04:28:23.973Z,3.63
2022-09-23T04:30:52.334Z,3.45
2022-09-23T04:33:19.751Z,3.10
2022-09-23T04:35:51.014Z,3.75
2022-09-23T04:38:21.167Z,3.40
2022-09-23T04:40:51.541Z,3.67
2022-09-23T04:43:23.485Z,3.42
2022-09-23T04:46:00.854Z,3.95
2022-09-23T04:48:30.335Z,3.03
2022-09-23T04:51:07.734Z,4.10
2022-09-23T04:53:36.893Z,2.92
2022-09-23T04:56:05.283Z,2.67
2022-09-23T04:58:35.278Z,3.07
2022-09-23T05:03:35.382Z,2.90
2022-09-23T05:06:02.725Z,3.22
2022-09-23T05:08:54.318Z,3.50
2022-09-23T05:11:22.155Z,3.17
2022-09-23T05:13:50.284Z,3.90
2022-09-23T05:16:18.240Z,3.60
2022-09-23T05:18:46.161Z,3.15
2022-09-23T05:21:15.055Z,2.92
2022-09-23T05:23:42.896Z,3.08
2022-09-23T05:26:13.885Z,4.55
2022-09-23T05:28:41.244Z,2.95
2022-09-23T05:31:20.036Z,2.70
2022-09-23T05:33:49.881Z,4.70
2022-09-23T05:36:21.403Z,4.43
2022-09-23T05:38:51.317Z,2.20
2022-09-23T05:43:45.956Z,2.80
2022-09-23T05:46:14.612Z,3.42
2022-09-23T05:48:42.483Z,2.53
2022-09-23T05:51:12.870Z,3.95
2022-09-23T05:53:42.753Z,4.05
2022-09-23T05:56:10.058Z,2.60
2022-09-23T05:58:37.420Z,2.78
2022-09-23T06:01:14.900Z,2.08
2022-09-23T06:03:42.268Z,2.60
2022-09-23T06:06:14.667Z,2.55
2022-09-23T06:08:42.898Z,2.38
2022-09-23T06:11:10.318Z,2.50
2022-09-23T06:13:38.403Z,2.25
2022-09-23T06:16:10.240Z,1.98
2022-09-23T06:18:41.341Z,2.33
2022-09-23T06:21:09.702Z,2.83
2022-09-23T06:23:40.206Z,7.53
2022-09-23T06:26:09.877Z,9.13
2022-09-23T06:28:38.136Z,5.20
2022-09-23T06:31:13.309Z,4.00
2022-09-23T06:33:41.114Z,4.30
2022-09-23T06:36:08.767Z,5.53
2022-09-23T06:38:39.097Z,3.50
2022-09-23T06:41:07.147Z,2.83
2022-09-23T06:43:34.667Z,3.85
2022-09-23T06:46:03.881Z,2.72
2022-09-23T06:48:35.320Z,2.63
2022-09-23T06:51:04.203Z,3.50
2022-09-23T06:53:35.199Z,2.40
2022-09-23T06:56:04.187Z,2.28
2022-09-23T06:58:32.100Z,3.03
2022-09-23T07:01:03.056Z,2.70
2022-09-23T07:03:31.868Z,2.30
2022-09-23T07:05:59.488Z,2.20
2022-09-23T07:08:27.395Z,2.70
2022-09-23T07:10:55.512Z,2.40
2022-09-23T07:13:23.667Z,2.45
2022-09-23T07:15:54.792Z,2.08
2022-09-23T07:18:25.751Z,3.40
2022-09-23T07:20:53.302Z,3.38
2022-09-23T07:23:22.175Z,1.70
2022-09-23T07:25:51.737Z,1.50
2022-09-23T07:28:19.502Z,1.45
2022-09-23T07:30:57.597Z,1.80
2022-09-23T07:33:33.386Z,1.58
2022-09-23T07:36:04.933Z,3.35
2022-09-23T07:38:32.211Z,1.80
2022-09-23T07:41:03.546Z,2.00
2022-09-23T07:43:32.585Z,1.90
2022-09-23T07:46:02.291Z,1.50
2022-09-23T07:48:34.027Z,2.00
2022-09-23T07:51:01.961Z,1.70
2022-09-23T07:53:32.165Z,1.90
2022-09-23T07:55:59.540Z,1.85
2022-09-23T07:58:27.007Z,1.20
2022-09-23T08:00:54.324Z,1.73
2022-09-23T08:03:21.647Z,1.58
2022-09-23T08:05:49.285Z,1.50
2022-09-23T08:08:17.361Z,2.05
2022-09-23T08:10:46.000Z,1.45
2022-09-23T08:13:13.344Z,2.00
2022-09-23T08:15:44.283Z,2.08
2022-09-23T08:18:11.689Z,1.70
2022-09-23T08:20:47.163Z,1.77
2022-09-23T08:23:15.920Z,1.77
2022-09-23T08:25:46.090Z,1.95
2022-09-23T08:28:16.632Z,1.48
2022-09-23T08:33:16.675Z,1.77
2022-09-23T08:35:47.152Z,2.10
2022-09-23T08:38:14.438Z,1.77
2022-09-23T08:40:44.006Z,2.35
2022-09-23T08:43:21.972Z,2.22
2022-09-23T08:45:51.231Z,1.92
2022-09-23T08:48:22.475Z,1.77
2022-09-23T08:50:53.467Z,1.92
2022-09-23T08:53:20.802Z,1.60
2022-09-23T08:55:49.611Z,1.88
2022-09-23T08:58:25.925Z,1.55
2022-09-23T09:01:02.587Z,1.92
2022-09-23T09:03:59.366Z,1.50
2022-09-23T09:06:45.592Z,1.90
2022-09-23T09:09:23.897Z,2.05
2022-09-23T09:11:53.345Z,2.20
2022-09-23T09:14:25.677Z,2.10
2022-09-23T09:17:02.574Z,2.65
2022-09-23T09:19:51.974Z,1.80
2022-09-23T09:22:29.069Z,1.60
2022-09-23T09:25:01.468Z,5.57
2022-09-23T09:27:28.781Z,2.10
2022-09-23T09:29:56.928Z,1.58
2022-09-23T09:32:47.437Z,1.98
2022-09-23T09:35:21.551Z,1.50
2022-09-23T09:37:48.911Z,1.92
2022-09-23T09:40:17.448Z,1.83
2022-09-23T09:42:48.141Z,1.50
2022-09-23T09:45:19.938Z,1.75
2022-09-23T09:47:56.792Z,1.63
2022-09-23T09:50:44.349Z,1.85
2022-09-23T09:53:25.186Z,1.70
2022-09-23T09:56:06.422Z,1.38
2022-09-23T09:58:41.716Z,1.35
2022-09-23T10:01:09.345Z,1.85
2022-09-23T10:03:44.091Z,1.90
2022-09-23T10:06:22.282Z,1.30
2022-09-23T10:09:03.571Z,1.40
2022-09-23T10:11:31.608Z,1.25
2022-09-23T10:14:03.028Z,1.45
2022-09-23T10:16:32.060Z,1.30
2022-09-23T10:19:12.489Z,1.50
2022-09-23T10:21:42.291Z,1.40
2022-09-23T10:26:40.675Z,1.67
2022-09-23T10:29:23.320Z,1.38
2022-09-23T10:31:54.473Z,1.20
2022-09-23T10:34:27.523Z,0.98
2022-09-23T10:36:55.641Z,1.30
2022-09-23T10:39:42.130Z,1.23
2022-09-23T10:43:03.166Z,1.50
2022-09-23T10:45:53.273Z,1.27
2022-09-23T10:48:29.409Z,2.35
2022-09-23T10:51:01.163Z,1.20
2022-09-23T10:53:37.688Z,1.17
2022-09-23T10:56:24.206Z,1.38
2022-09-23T10:59:06.917Z,1.60
2022-09-23T11:01:37.393Z,1.10
2022-09-23T11:04:08.451Z,1.13
2022-09-23T11:06:55.239Z,1.30
2022-09-23T11:09:28.716Z,1.35
2022-09-23T11:12:14.751Z,1.40
2022-09-23T11:14:42.108Z,1.30
2022-09-23T11:17:28.397Z,0.90
2022-09-23T11:20:09.629Z,1.70
2022-09-23T11:22:55.757Z,2.35
2022-09-23T11:25:25.176Z,1.30
2022-09-23T11:27:52.417Z,1.25
2022-09-23T11:30:20.992Z,1.10
2022-09-23T11:33:07.363Z,1.17
2022-09-23T11:35:48.241Z,1.33
2022-09-23T11:38:26.123Z,1.38
2022-09-23T11:40:57.080Z,1.35
2022-09-23T11:43:39.158Z,1.30
2022-09-23T11:46:23.483Z,0.88
2022-09-23T11:49:01.052Z,1.30
2022-09-23T11:51:47.184Z,1.30
2022-09-23T11:54:17.285Z,1.27
2022-09-23T11:56:51.481Z,1.55
2022-09-23T11:59:40.655Z,1.05
2022-09-23T12:02:20.682Z,1.10
2022-09-23T12:07:27.439Z,0.95
2022-09-23T12:09:58.432Z,2.03
2022-09-23T12:12:28.939Z,5.25
2022-09-23T12:15:02.395Z,1.40
2022-09-23T12:17:38.818Z,2.45
2022-09-23T12:20:06.351Z,4.15
2022-09-23T12:22:47.680Z,1.42
2022-09-23T12:25:27.177Z,1.48
2022-09-23T12:27:56.223Z,3.67
2022-09-23T12:30:29.061Z,10.00
2022-09-23T12:33:17.324Z,4.30
2022-09-23T12:35:46.780Z,2.55
2022-09-23T12:38:15.242Z,1.17
2022-09-23T12:40:44.794Z,2.25
2022-09-23T12:43:31.362Z,2.70
2022-09-23T12:46:17.408Z,1.25
2022-09-23T12:49:00.687Z,1.33
2022-09-23T12:51:29.289Z,17.08
2022-09-23T12:54:05.493Z,2.38
2022-09-23T12:56:38.862Z,1.10
2022-09-23T12:59:21.197Z,1.52
2022-09-23T13:01:48.948Z,1.20
2022-09-23T13:04:50.313Z,1.30
2022-09-23T13:07:26.277Z,1.17
2022-09-23T13:09:57.106Z,1.15
2022-09-23T13:12:26.571Z,1.10
2022-09-23T13:14:55.730Z,1.40
2022-09-23T13:17:24.773Z,1.30
2022-09-23T13:19:59.286Z,1.10
2022-09-23T13:23:00.333Z,1.55
2022-09-23T13:25:29.346Z,1.20
2022-09-23T13:27:58.767Z,1.30
2022-09-23T13:30:27.091Z,2.35
2022-09-23T13:33:03.560Z,1.40
2022-09-23T13:35:33.624Z,1.30
2022-09-23T13:38:10.325Z,1.00
2022-09-23T13:40:38.122Z,1.33
2022-09-23T13:43:26.418Z,1.15
2022-09-23T13:45:54.437Z,1.48
2022-09-23T13:48:26.083Z,2.05
2022-09-23T13:50:54.871Z,2.60
2022-09-23T13:53:29.351Z,2.88
2022-09-23T13:56:03.456Z,2.70
2022-09-23T13:58:32.283Z,2.95
2022-09-23T14:01:00.039Z,2.83
2022-09-23T14:03:35.344Z,2.58
2022-09-23T14:06:10.491Z,3.28
2022-09-23T14:08:40.437Z,3.75
2022-09-23T14:13:42.020Z,3.95
2022-09-23T14:16:13.220Z,4.63
2022-09-23T14:18:42.035Z,4.07
2022-09-23T14:21:28.314Z,1.90
2022-09-23T14:23:55.840Z,2.05
2022-09-23T14:26:24.698Z,1.60
2022-09-23T14:28:52.997Z,1.38
2022-09-23T14:31:20.499Z,1.95
2022-09-23T14:33:48.087Z,1.40
2022-09-23T14:36:35.259Z,1.30
2022-09-23T14:39:06.901Z,1.40
2022-09-23T14:41:35.966Z,2.05
2022-09-23T14:44:03.897Z,2.73
2022-09-23T14:46:34.246Z,1.40
2022-09-23T14:49:01.553Z,1.40
2022-09-23T14:51:37.192Z,1.30
2022-09-23T14:54:23.508Z,1.50
2022-09-23T14:56:51.463Z,1.30
2022-09-23T14:59:29.573Z,1.65
2022-09-23T15:01:57.369Z,2.35
2022-09-23T15:04:24.724Z,1.98
2022-09-23T15:06:55.183Z,2.20
2022-09-23T15:09:43.449Z,2.75
2022-09-23T15:12:15.706Z,3.28
2022-09-23T15:14:50.593Z,3.42
2022-09-23T15:17:24.377Z,2.38
2022-09-23T15:19:52.785Z,2.53
2022-09-23T15:22:20.185Z,1.88
2022-09-23T15:24:47.540Z,1.63
2022-09-23T15:27:25.783Z,1.30
2022-09-23T15:29:54.105Z,1.63
2022-09-23T15:32:22.236Z,2.33
2022-09-23T15:34:50.635Z,1.77
2022-09-23T15:37:17.979Z,1.67
2022-09-23T15:39:45.445Z,2.03
2022-09-23T15:42:12.912Z,1.70
2022-09-23T15:44:40.277Z,2.03
2022-09-23T15:47:13.550Z,2.40
2022-09-23T15:49:40.982Z,2.40
2022-09-23T15:52:08.951Z,2.10
2022-09-23T15:54:36.270Z,1.65
2022-09-23T15:57:03.579Z,2.00
2022-09-23T15:59:31.107Z,2.15
2022-09-23T16:01:59.763Z,3.00
2022-09-23T16:04:28.373Z,2.03
2022-09-23T16:06:55.764Z,1.98
2022-09-23T16:09:23.115Z,1.98
2022-09-23T16:11:53.068Z,1.75
2022-09-23T16:16:48.106Z,1.67
2022-09-23T16:19:17.763Z,2.30
2022-09-23T16:21:45.130Z,3.50
2022-09-23T16:24:17.002Z,3.60
2022-09-23T16:26:45.278Z,3.40
2022-09-23T16:29:12.571Z,2.80
2022-09-23T16:31:41.374Z,2.67
2022-09-23T16:34:08.816Z,3.55
2022-09-23T16:36:41.250Z,3.20
2022-09-23T16:39:11.103Z,3.25
2022-09-23T16:44:07.596Z,2.97
2022-09-23T16:46:35.531Z,3.15
2022-09-23T16:49:03.074Z,2.80
2022-09-23T16:51:33.493Z,3.60
2022-09-23T16:54:00.827Z,3.30
2022-09-23T16:56:29.674Z,3.10
2022-09-23T16:58:58.356Z,3.50
2022-09-23T17:01:47.039Z,3.63
2022-09-23T17:04:15.420Z,3.70
2022-09-23T17:06:43.535Z,3.53
2022-09-23T17:09:11.500Z,4.55
2022-09-23T17:11:40.480Z,9.05
2022-09-23T17:14:09.005Z,6.78
2022-09-23T17:16:38.449Z,9.20
2022-09-23T17:19:09.129Z,8.48
2022-09-23T17:21:36.741Z,8.57
2022-09-23T17:24:03.930Z,8.90
2022-09-23T17:26:31.680Z,7.90
2022-09-23T17:29:01.317Z,8.98
2022-09-23T17:31:29.270Z,7.47
2022-09-23T17:33:56.306Z,6.60
2022-09-23T17:36:24.972Z,6.07
2022-09-23T17:38:53.835Z,5.05
2022-09-23T17:41:21.215Z,5.13
2022-09-23T17:43:48.500Z,4.80
2022-09-23T17:46:18.951Z,4.88
2022-09-23T17:48:47.119Z,4.07
2022-09-23T17:51:17.489Z,3.92
2022-09-23T17:53:46.640Z,4.72
2022-09-23T17:56:21.536Z,5.63
2022-09-23T17:58:49.467Z,5.28
2022-09-23T18:01:20.146Z,6.22
2022-09-23T18:03:48.466Z,6.20
2022-09-23T18:06:20.426Z,6.10
2022-09-23T18:08:48.472Z,5.95
2022-09-23T18:11:20.208Z,7.22
2022-09-23T18:13:49.367Z,6.85
2022-09-23T18:16:16.895Z,6.88
2022-09-23T18:18:44.737Z,5.70
2022-09-23T18:21:12.126Z,6.05
2022-09-23T18:23:39.488Z,6.18
2022-09-23T18:26:13.374Z,5.60
2022-09-23T18:28:40.801Z,8.77
2022-09-23T18:31:08.090Z,6.78
2022-09-23T18:33:36.505Z,8.07
2022-09-23T18:36:04.615Z,7.47
2022-09-23T18:38:31.924Z,8.55
2022-09-23T18:41:00.416Z,6.25
2022-09-23T18:43:37.531Z,5.85
2022-09-23T18:46:12.856Z,6.13
2022-09-23T18:48:58.462Z,5.63
2022-09-23T18:51:28.429Z,5.03
2022-09-23T18:56:37.245Z,4.50
2022-09-23T18:59:06.451Z,5.50
2022-09-23T19:01:34.333Z,5.28
2022-09-23T19:04:02.488Z,6.05
2022-09-23T19:06:31.574Z,4.93
2022-09-23T19:08:58.764Z,4.30
2022-09-23T19:11:25.714Z,4.05
2022-09-23T19:13:57.592Z,4.43
2022-09-23T19:16:25.952Z,4.45
2022-09-23T19:18:56.149Z,4.22
2022-09-23T19:21:23.751Z,4.90
2022-09-23T19:23:56.240Z,5.65
2022-09-23T19:26:28.928Z,5.75
2022-09-23T19:28:57.746Z,6.50
2022-09-23T19:31:33.628Z,6.60
2022-09-23T19:34:11.736Z,5.20
2022-09-23T19:36:40.922Z,4.32
2022-09-23T19:39:14.592Z,4.53
2022-09-23T19:41:41.508Z,6.55
2022-09-23T19:44:08.900Z,5.68
2022-09-23T19:46:38.541Z,6.13
2022-09-23T19:49:07.145Z,4.45
2022-09-23T19:51:34.697Z,4.72
2022-09-23T19:54:03.618Z,4.18
2022-09-23T19:56:32.034Z,5.15
2022-09-23T19:58:59.512Z,5.43
2022-09-23T20:01:29.461Z,5.10
2022-09-23T20:06:23.494Z,5.57
2022-09-23T20:08:50.929Z,5.43
2022-09-23T20:11:26.064Z,3.50
2022-09-23T20:14:07.070Z,3.67
2022-09-23T20:16:37.580Z,3.63
2022-09-23T20:19:06.214Z,4.10
2022-09-23T20:21:34.391Z,6.65
2022-09-23T20:24:02.800Z,3.97
2022-09-23T20:26:48.340Z,3.60
2022-09-23T20:29:16.321Z,3.88
2022-09-23T20:31:43.809Z,3.67
2022-09-23T20:34:11.516Z,4.03
2022-09-23T20:36:41.953Z,4.63
2022-09-23T20:39:10.790Z,3.80
2022-09-23T20:41:40.728Z,3.72
2022-09-23T20:46:37.936Z,3.50
2022-09-23T20:49:08.378Z,3.63
2022-09-23T20:51:37.043Z,2.97
2022-09-23T20:54:04.790Z,2.97
2022-09-23T20:56:31.894Z,3.50
2022-09-23T20:59:02.817Z,3.58
2022-09-23T21:01:32.177Z,3.15
2022-09-23T21:03:59.474Z,3.50
2022-09-23T21:06:26.725Z,2.88
2022-09-23T21:08:55.048Z,3.10
2022-09-23T21:11:22.546Z,3.20
2022-09-23T21:13:51.472Z,2.92
2022-09-23T21:16:21.640Z,3.90
2022-09-23T21:18:50.563Z,3.35
2022-09-23T21:21:19.712Z,3.30
2022-09-23T21:23:47.949Z,3.60
2022-09-23T21:26:20.649Z,3.33
2022-09-23T21:28:52.847Z,3.20
2022-09-23T21:31:25.936Z,2.92
2022-09-23T21:34:01.701Z,3.25
2022-09-23T21:36:31.058Z,3.35
2022-09-23T21:38:58.273Z,3.10
2022-09-23T21:41:25.752Z,3.50
2022-09-23T21:43:52.729Z,3.70
2022-09-23T21:46:20.847Z,3.22
2022-09-23T21:48:57.511Z,3.00
2022-09-23T21:51:26.600Z,3.00
2022-09-23T21:53:55.773Z,3.03
2022-09-23T21:56:35.259Z,2.80
2022-09-23T21:59:02.646Z,3.72
2022-09-23T22:01:36.650Z,3.75
2022-09-23T22:04:09.279Z,3.22
2022-09-23T22:06:38.416Z,3.00
2022-09-23T22:09:09.042Z,3.78
2022-09-23T22:11:55.906Z,3.08
2022-09-23T22:14:26.114Z,3.33
2022-09-23T22:16:57.886Z,3.88
2022-09-23T22:19:28.136Z,4.03
2022-09-23T22:21:56.241Z,3.35
2022-09-23T22:24:23.258Z,3.40
2022-09-23T22:26:50.572Z,3.28
2022-09-23T22:29:37.193Z,3.38
2022-09-23T22:32:24.462Z,3.20
2022-09-23T22:34:52.718Z,3.00
2022-09-23T22:37:25.729Z,2.65
2022-09-23T22:39:52.990Z,2.95
2022-09-23T22:42:22.973Z,2.67
2022-09-23T22:47:18.214Z,3.65
2022-09-23T22:49:46.683Z,2.80
2022-09-23T22:52:16.074Z,2.78
2022-09-23T22:54:43.181Z,3.38
2022-09-23T22:57:10.657Z,2.75
2022-09-23T22:59:37.984Z,2.75
2022-09-23T23:02:07.780Z,2.97
2022-09-23T23:04:36.622Z,3.58
2022-09-23T23:07:03.586Z,3.35
2022-09-23T23:09:30.502Z,2.90
2022-09-23T23:11:57.374Z,3.00
2022-09-23T23:14:24.484Z,3.10
2022-09-23T23:16:51.435Z,3.00
2022-09-23T23:19:19.347Z,2.83
2022-09-23T23:21:46.626Z,2.92
2022-09-23T23:24:17.518Z,3.20
2022-09-23T23:26:45.244Z,2.83
2022-09-23T23:29:14.922Z,2.58
2022-09-23T23:31:42.698Z,2.67
2022-09-23T23:34:18.364Z,2.63
2022-09-23T23:36:46.851Z,2.50
2022-09-23T23:39:14.399Z,2.92
2022-09-23T23:41:41.729Z,2.55
2022-09-23T23:44:08.833Z,2.58
2022-09-23T23:46:37.548Z,2.80
2022-09-23T23:49:05.022Z,2.78
2022-09-23T23:51:32.157Z,3.03
2022-09-23T23:54:00.040Z,2.80
2022-09-23T23:56:27.848Z,3.08
2022-09-23T23:58:59.772Z,3.20
